sensor_id;sensor_type;location;lat;lon;timestamp;temperature;humidity
21676;DHT22;10999;51.332;9.458;2022-07-15T00:01:51;13.60;64.00
21676;DHT22;10999;51.332;9.458;2022-07-15T00:04:18;13.60;64.20
21676;DHT22;10999;51.332;9.458;2022-07-15T00:06:45;13.60;64.00
21676;DHT22;10999;51.332;9.458;2022-07-15T00:09:11;13.70;63.60
21676;DHT22;10999;51.332;9.458;2022-07-15T00:11:38;13.70;63.70
21676;DHT22;10999;51.332;9.458;2022-07-15T00:14:05;13.70;63.30
21676;DHT22;10999;51.332;9.458;2022-07-15T00:16:31;13.70;63.10
21676;DHT22;10999;51.332;9.458;2022-07-15T00:18:58;13.70;63.30
21676;DHT22;10999;51.332;9.458;2022-07-15T00:21:25;13.70;63.40
21676;DHT22;10999;51.332;9.458;2022-07-15T00:23:51;13.70;63.50
21676;DHT22;10999;51.332;9.458;2022-07-15T00:26:18;13.70;63.70
21676;DHT22;10999;51.332;9.458;2022-07-15T00:28:45;13.70;63.80
21676;DHT22;10999;51.332;9.458;2022-07-15T00:31:11;13.80;63.80
21676;DHT22;10999;51.332;9.458;2022-07-15T00:33:39;13.80;64.00
21676;DHT22;10999;51.332;9.458;2022-07-15T00:36:05;13.80;63.70
21676;DHT22;10999;51.332;9.458;2022-07-15T00:38:32;13.70;63.90
21676;DHT22;10999;51.332;9.458;2022-07-15T00:40:59;13.70;63.80
21676;DHT22;10999;51.332;9.458;2022-07-15T00:43:25;13.70;64.30
21676;DHT22;10999;51.332;9.458;2022-07-15T00:45:52;13.70;64.60
21676;DHT22;10999;51.332;9.458;2022-07-15T00:48:19;13.70;65.40
21676;DHT22;10999;51.332;9.458;2022-07-15T00:50:46;13.70;65.40
21676;DHT22;10999;51.332;9.458;2022-07-15T00:53:16;13.70;65.60
21676;DHT22;10999;51.332;9.458;2022-07-15T00:55:43;13.80;65.50
21676;DHT22;10999;51.332;9.458;2022-07-15T00:58:12;13.90;65.20
21676;DHT22;10999;51.332;9.458;2022-07-15T01:00:40;13.90;65.30
21676;DHT22;10999;51.332;9.458;2022-07-15T01:03:08;13.90;65.40
21676;DHT22;10999;51.332;9.458;2022-07-15T01:05:35;13.90;65.80
21676;DHT22;10999;51.332;9.458;2022-07-15T01:08:02;14.00;65.70
21676;DHT22;10999;51.332;9.458;2022-07-15T01:10:29;14.00;65.90
21676;DHT22;10999;51.332;9.458;2022-07-15T01:12:56;14.10;65.70
21676;DHT22;10999;51.332;9.458;2022-07-15T01:15:22;14.10;65.80
21676;DHT22;10999;51.332;9.458;2022-07-15T01:17:49;14.20;65.40
21676;DHT22;10999;51.332;9.458;2022-07-15T01:20:16;14.20;65.50
21676;DHT22;10999;51.332;9.458;2022-07-15T01:22:43;14.20;65.60
21676;DHT22;10999;51.332;9.458;2022-07-15T01:25:09;14.20;66.00
21676;DHT22;10999;51.332;9.458;2022-07-15T01:27:36;14.40;66.10
21676;DHT22;10999;51.332;9.458;2022-07-15T01:30:04;14.30;66.20
21676;DHT22;10999;51.332;9.458;2022-07-15T01:32:31;14.30;66.30
21676;DHT22;10999;51.332;9.458;2022-07-15T01:34:57;14.30;66.30
21676;DHT22;10999;51.332;9.458;2022-07-15T01:37:24;14.40;66.70
21676;DHT22;10999;51.332;9.458;2022-07-15T01:39:51;14.40;66.60
21676;DHT22;10999;51.332;9.458;2022-07-15T01:42:17;14.40;66.70
21676;DHT22;10999;51.332;9.458;2022-07-15T01:44:44;14.40;66.60
21676;DHT22;10999;51.332;9.458;2022-07-15T01:47:11;14.40;66.40
21676;DHT22;10999;51.332;9.458;2022-07-15T01:49:37;14.40;66.60
21676;DHT22;10999;51.332;9.458;2022-07-15T01:52:04;14.40;67.00
21676;DHT22;10999;51.332;9.458;2022-07-15T01:54:31;14.50;66.50
21676;DHT22;10999;51.332;9.458;2022-07-15T01:56:58;14.50;66.50
21676;DHT22;10999;51.332;9.458;2022-07-15T01:59:25;14.50;66.70
21676;DHT22;10999;51.332;9.458;2022-07-15T02:01:53;14.50;65.90
21676;DHT22;10999;51.332;9.458;2022-07-15T02:04:21;14.50;66.80
21676;DHT22;10999;51.332;9.458;2022-07-15T02:06:48;14.50;66.20
21676;DHT22;10999;51.332;9.458;2022-07-15T02:09:14;14.60;66.00
21676;DHT22;10999;51.332;9.458;2022-07-15T02:11:41;14.60;66.20
21676;DHT22;10999;51.332;9.458;2022-07-15T02:14:08;14.60;65.80
21676;DHT22;10999;51.332;9.458;2022-07-15T02:16:35;14.60;65.80
21676;DHT22;10999;51.332;9.458;2022-07-15T02:19:02;14.60;66.00
21676;DHT22;10999;51.332;9.458;2022-07-15T02:21:28;14.60;66.00
21676;DHT22;10999;51.332;9.458;2022-07-15T02:23:55;14.60;66.20
21676;DHT22;10999;51.332;9.458;2022-07-15T02:26:23;14.60;66.00
21676;DHT22;10999;51.332;9.458;2022-07-15T02:28:50;14.60;66.40
21676;DHT22;10999;51.332;9.458;2022-07-15T02:31:17;14.60;66.70
21676;DHT22;10999;51.332;9.458;2022-07-15T02:33:45;14.60;67.00
21676;DHT22;10999;51.332;9.458;2022-07-15T02:36:12;14.60;67.10
21676;DHT22;10999;51.332;9.458;2022-07-15T02:38:39;14.60;67.20
21676;DHT22;10999;51.332;9.458;2022-07-15T02:41:07;14.50;67.60
21676;DHT22;10999;51.332;9.458;2022-07-15T02:43:34;14.50;67.80
21676;DHT22;10999;51.332;9.458;2022-07-15T02:46:02;14.50;68.00
21676;DHT22;10999;51.332;9.458;2022-07-15T02:48:29;14.50;68.70
21676;DHT22;10999;51.332;9.458;2022-07-15T02:50:56;14.50;68.50
21676;DHT22;10999;51.332;9.458;2022-07-15T02:53:22;14.50;69.00
21676;DHT22;10999;51.332;9.458;2022-07-15T02:55:55;14.50;68.70
21676;DHT22;10999;51.332;9.458;2022-07-15T02:58:22;14.60;68.70
21676;DHT22;10999;51.332;9.458;2022-07-15T03:00:49;14.50;68.80
21676;DHT22;10999;51.332;9.458;2022-07-15T03:03:15;14.60;68.90
21676;DHT22;10999;51.332;9.458;2022-07-15T03:05:42;14.60;68.70
21676;DHT22;10999;51.332;9.458;2022-07-15T03:08:09;14.60;68.90
21676;DHT22;10999;51.332;9.458;2022-07-15T03:10:36;14.60;69.40
21676;DHT22;10999;51.332;9.458;2022-07-15T03:13:03;14.70;69.00
21676;DHT22;10999;51.332;9.458;2022-07-15T03:15:29;14.60;68.50
21676;DHT22;10999;51.332;9.458;2022-07-15T03:17:56;14.60;68.60
21676;DHT22;10999;51.332;9.458;2022-07-15T03:20:23;14.70;69.00
21676;DHT22;10999;51.332;9.458;2022-07-15T03:22:49;14.60;69.10
21676;DHT22;10999;51.332;9.458;2022-07-15T03:25:16;14.60;69.00
21676;DHT22;10999;51.332;9.458;2022-07-15T03:27:43;14.60;69.40
21676;DHT22;10999;51.332;9.458;2022-07-15T03:30:09;14.60;69.20
21676;DHT22;10999;51.332;9.458;2022-07-15T03:32:36;14.60;69.80
21676;DHT22;10999;51.332;9.458;2022-07-15T03:35:03;14.70;69.70
21676;DHT22;10999;51.332;9.458;2022-07-15T03:37:29;14.60;69.70
21676;DHT22;10999;51.332;9.458;2022-07-15T03:39:56;14.50;69.80
21676;DHT22;10999;51.332;9.458;2022-07-15T03:42:22;14.60;70.00
21676;DHT22;10999;51.332;9.458;2022-07-15T03:44:49;14.60;70.00
21676;DHT22;10999;51.332;9.458;2022-07-15T03:47:16;14.60;69.80
21676;DHT22;10999;51.332;9.458;2022-07-15T03:49:43;14.60;70.00
21676;DHT22;10999;51.332;9.458;2022-07-15T03:52:10;14.60;70.80
21676;DHT22;10999;51.332;9.458;2022-07-15T03:54:36;14.70;71.20
21676;DHT22;10999;51.332;9.458;2022-07-15T03:57:03;14.60;69.90
21676;DHT22;10999;51.332;9.458;2022-07-15T03:59:30;14.60;70.20
21676;DHT22;10999;51.332;9.458;2022-07-15T04:01:56;14.50;71.00
21676;DHT22;10999;51.332;9.458;2022-07-15T04:04:23;14.50;70.80
21676;DHT22;10999;51.332;9.458;2022-07-15T04:06:50;14.60;70.70
21676;DHT22;10999;51.332;9.458;2022-07-15T04:09:16;14.60;72.00
21676;DHT22;10999;51.332;9.458;2022-07-15T04:11:43;14.60;74.80
21676;DHT22;10999;51.332;9.458;2022-07-15T04:14:10;14.60;76.40
21676;DHT22;10999;51.332;9.458;2022-07-15T04:16:37;14.50;77.70
21676;DHT22;10999;51.332;9.458;2022-07-15T04:19:04;14.40;78.20
21676;DHT22;10999;51.332;9.458;2022-07-15T04:21:31;14.40;79.70
21676;DHT22;10999;51.332;9.458;2022-07-15T04:23:58;14.30;79.20
21676;DHT22;10999;51.332;9.458;2022-07-15T04:26:24;14.30;80.10
21676;DHT22;10999;51.332;9.458;2022-07-15T04:28:51;14.30;80.30
21676;DHT22;10999;51.332;9.458;2022-07-15T04:31:18;14.30;81.70
21676;DHT22;10999;51.332;9.458;2022-07-15T04:33:45;14.30;80.40
21676;DHT22;10999;51.332;9.458;2022-07-15T04:36:12;14.20;79.70
21676;DHT22;10999;51.332;9.458;2022-07-15T04:38:38;14.30;80.10
21676;DHT22;10999;51.332;9.458;2022-07-15T04:41:05;14.30;81.00
21676;DHT22;10999;51.332;9.458;2022-07-15T04:43:32;14.30;79.60
21676;DHT22;10999;51.332;9.458;2022-07-15T04:45:59;14.20;79.30
21676;DHT22;10999;51.332;9.458;2022-07-15T04:48:26;14.10;79.60
21676;DHT22;10999;51.332;9.458;2022-07-15T04:51:11;14.20;79.90
21676;DHT22;10999;51.332;9.458;2022-07-15T04:53:39;14.20;79.10
21676;DHT22;10999;51.332;9.458;2022-07-15T04:56:05;14.20;79.60
21676;DHT22;10999;51.332;9.458;2022-07-15T04:58:32;14.20;79.90
21676;DHT22;10999;51.332;9.458;2022-07-15T05:00:58;14.20;78.40
21676;DHT22;10999;51.332;9.458;2022-07-15T05:03:25;14.30;78.70
21676;DHT22;10999;51.332;9.458;2022-07-15T05:05:52;14.30;78.50
21676;DHT22;10999;51.332;9.458;2022-07-15T05:08:18;14.30;78.50
21676;DHT22;10999;51.332;9.458;2022-07-15T05:10:47;14.20;77.90
21676;DHT22;10999;51.332;9.458;2022-07-15T05:13:14;14.30;78.60
21676;DHT22;10999;51.332;9.458;2022-07-15T05:15:40;14.40;79.10
21676;DHT22;10999;51.332;9.458;2022-07-15T05:18:07;14.30;78.60
21676;DHT22;10999;51.332;9.458;2022-07-15T05:20:34;14.40;79.30
21676;DHT22;10999;51.332;9.458;2022-07-15T05:23:00;14.50;79.10
21676;DHT22;10999;51.332;9.458;2022-07-15T05:25:27;14.50;77.50
21676;DHT22;10999;51.332;9.458;2022-07-15T05:27:53;14.50;77.30
21676;DHT22;10999;51.332;9.458;2022-07-15T05:30:20;14.50;77.70
21676;DHT22;10999;51.332;9.458;2022-07-15T05:32:47;14.50;77.90
21676;DHT22;10999;51.332;9.458;2022-07-15T05:35:13;14.60;78.00
21676;DHT22;10999;51.332;9.458;2022-07-15T05:37:41;14.60;77.10
21676;DHT22;10999;51.332;9.458;2022-07-15T05:40:09;14.70;77.20
21676;DHT22;10999;51.332;9.458;2022-07-15T05:42:37;14.70;77.30
21676;DHT22;10999;51.332;9.458;2022-07-15T05:45:04;14.90;77.10
21676;DHT22;10999;51.332;9.458;2022-07-15T05:47:31;14.90;75.20
21676;DHT22;10999;51.332;9.458;2022-07-15T05:49:59;15.00;74.90
21676;DHT22;10999;51.332;9.458;2022-07-15T05:52:25;15.00;74.60
21676;DHT22;10999;51.332;9.458;2022-07-15T05:54:52;15.00;74.40
21676;DHT22;10999;51.332;9.458;2022-07-15T05:57:18;15.10;73.60
21676;DHT22;10999;51.332;9.458;2022-07-15T05:59:45;15.10;74.00
21676;DHT22;10999;51.332;9.458;2022-07-15T06:02:12;15.20;71.90
21676;DHT22;10999;51.332;9.458;2022-07-15T06:04:41;15.20;72.20
21676;DHT22;10999;51.332;9.458;2022-07-15T06:07:07;15.10;69.40
21676;DHT22;10999;51.332;9.458;2022-07-15T06:09:34;15.10;70.30
21676;DHT22;10999;51.332;9.458;2022-07-15T06:12:01;15.10;68.70
21676;DHT22;10999;51.332;9.458;2022-07-15T06:14:27;15.30;68.80
21676;DHT22;10999;51.332;9.458;2022-07-15T06:17:03;15.20;69.50
21676;DHT22;10999;51.332;9.458;2022-07-15T06:19:30;15.30;70.60
21676;DHT22;10999;51.332;9.458;2022-07-15T06:21:56;15.30;71.90
21676;DHT22;10999;51.332;9.458;2022-07-15T06:24:23;15.60;70.10
21676;DHT22;10999;51.332;9.458;2022-07-15T06:26:50;15.60;68.70
21676;DHT22;10999;51.332;9.458;2022-07-15T06:29:16;15.60;69.30
21676;DHT22;10999;51.332;9.458;2022-07-15T06:31:43;15.60;68.30
21676;DHT22;10999;51.332;9.458;2022-07-15T06:34:10;15.50;67.50
21676;DHT22;10999;51.332;9.458;2022-07-15T06:36:36;15.60;67.50
21676;DHT22;10999;51.332;9.458;2022-07-15T06:39:03;15.50;66.10
21676;DHT22;10999;51.332;9.458;2022-07-15T06:41:30;15.50;67.00
21676;DHT22;10999;51.332;9.458;2022-07-15T06:43:58;15.50;67.50
21676;DHT22;10999;51.332;9.458;2022-07-15T06:46:25;15.60;66.90
21676;DHT22;10999;51.332;9.458;2022-07-15T06:48:51;15.50;65.80
21676;DHT22;10999;51.332;9.458;2022-07-15T06:51:18;15.50;66.20
21676;DHT22;10999;51.332;9.458;2022-07-15T06:53:45;15.40;66.90
21676;DHT22;10999;51.332;9.458;2022-07-15T06:56:11;15.30;65.20
21676;DHT22;10999;51.332;9.458;2022-07-15T06:58:39;15.30;65.20
21676;DHT22;10999;51.332;9.458;2022-07-15T07:01:06;15.20;65.20
21676;DHT22;10999;51.332;9.458;2022-07-15T07:03:32;15.20;64.50
21676;DHT22;10999;51.332;9.458;2022-07-15T07:06:19;15.20;64.80
21676;DHT22;10999;51.332;9.458;2022-07-15T07:08:46;15.20;64.60
21676;DHT22;10999;51.332;9.458;2022-07-15T07:11:14;15.30;61.10
21676;DHT22;10999;51.332;9.458;2022-07-15T07:13:41;15.20;59.30
21676;DHT22;10999;51.332;9.458;2022-07-15T07:16:08;15.20;59.50
21676;DHT22;10999;51.332;9.458;2022-07-15T07:18:35;15.20;57.90
21676;DHT22;10999;51.332;9.458;2022-07-15T07:21:02;15.40;60.20
21676;DHT22;10999;51.332;9.458;2022-07-15T07:23:28;15.50;59.50
21676;DHT22;10999;51.332;9.458;2022-07-15T07:25:57;15.90;57.40
21676;DHT22;10999;51.332;9.458;2022-07-15T07:28:24;16.40;56.80
21676;DHT22;10999;51.332;9.458;2022-07-15T07:30:51;17.00;53.00
21676;DHT22;10999;51.332;9.458;2022-07-15T07:33:18;17.50;46.90
21676;DHT22;10999;51.332;9.458;2022-07-15T07:35:45;17.90;43.70
21676;DHT22;10999;51.332;9.458;2022-07-15T07:38:12;17.80;39.80
21676;DHT22;10999;51.332;9.458;2022-07-15T07:40:39;18.20;43.90
21676;DHT22;10999;51.332;9.458;2022-07-15T07:43:06;18.70;37.30
21676;DHT22;10999;51.332;9.458;2022-07-15T07:45:32;18.90;38.80
21676;DHT22;10999;51.332;9.458;2022-07-15T07:47:59;18.70;34.70
21676;DHT22;10999;51.332;9.458;2022-07-15T07:50:25;18.40;37.00
21676;DHT22;10999;51.332;9.458;2022-07-15T07:52:52;18.20;36.40
21676;DHT22;10999;51.332;9.458;2022-07-15T07:55:20;18.30;39.60
21676;DHT22;10999;51.332;9.458;2022-07-15T07:57:51;18.40;37.70
21676;DHT22;10999;51.332;9.458;2022-07-15T08:00:18;18.20;36.70
21676;DHT22;10999;51.332;9.458;2022-07-15T08:02:45;18.00;37.60
21676;DHT22;10999;51.332;9.458;2022-07-15T08:05:11;17.80;37.70
21676;DHT22;10999;51.332;9.458;2022-07-15T08:07:38;17.70;39.60
21676;DHT22;10999;51.332;9.458;2022-07-15T08:10:05;18.00;40.30
21676;DHT22;10999;51.332;9.458;2022-07-15T08:12:32;18.10;37.10
21676;DHT22;10999;51.332;9.458;2022-07-15T08:14:59;18.00;36.00
21676;DHT22;10999;51.332;9.458;2022-07-15T08:17:26;18.00;35.50
21676;DHT22;10999;51.332;9.458;2022-07-15T08:19:52;17.60;36.80
21676;DHT22;10999;51.332;9.458;2022-07-15T08:22:20;17.30;38.60
21676;DHT22;10999;51.332;9.458;2022-07-15T08:24:46;17.10;38.40
21676;DHT22;10999;51.332;9.458;2022-07-15T08:27:13;17.00;39.00
21676;DHT22;10999;51.332;9.458;2022-07-15T08:29:39;16.90;38.80
21676;DHT22;10999;51.332;9.458;2022-07-15T08:32:06;17.00;37.70
21676;DHT22;10999;51.332;9.458;2022-07-15T08:34:33;17.20;36.60
21676;DHT22;10999;51.332;9.458;2022-07-15T08:36:59;17.70;35.50
21676;DHT22;10999;51.332;9.458;2022-07-15T08:39:26;17.90;32.50
21676;DHT22;10999;51.332;9.458;2022-07-15T08:41:53;18.00;28.00
21676;DHT22;10999;51.332;9.458;2022-07-15T08:44:20;18.50;30.80
21676;DHT22;10999;51.332;9.458;2022-07-15T08:46:47;19.30;28.50
21676;DHT22;10999;51.332;9.458;2022-07-15T08:49:15;20.10;29.40
21676;DHT22;10999;51.332;9.458;2022-07-15T08:51:44;20.30;24.70
21676;DHT22;10999;51.332;9.458;2022-07-15T08:54:11;20.30;24.30
21676;DHT22;10999;51.332;9.458;2022-07-15T08:56:38;19.80;22.90
21676;DHT22;10999;51.332;9.458;2022-07-15T08:59:05;19.20;22.40
21676;DHT22;10999;51.332;9.458;2022-07-15T09:01:33;18.70;23.90
21676;DHT22;10999;51.332;9.458;2022-07-15T09:04:00;18.50;26.30
21676;DHT22;10999;51.332;9.458;2022-07-15T09:06:31;18.40;26.10
21676;DHT22;10999;51.332;9.458;2022-07-15T09:08:58;18.30;27.30
21676;DHT22;10999;51.332;9.458;2022-07-15T09:11:28;18.30;27.00
21676;DHT22;10999;51.332;9.458;2022-07-15T09:13:57;18.30;26.80
21676;DHT22;10999;51.332;9.458;2022-07-15T09:16:25;18.30;27.60
21676;DHT22;10999;51.332;9.458;2022-07-15T09:18:53;18.40;27.90
21676;DHT22;10999;51.332;9.458;2022-07-15T09:21:24;18.50;29.90
21676;DHT22;10999;51.332;9.458;2022-07-15T09:23:52;18.50;30.30
21676;DHT22;10999;51.332;9.458;2022-07-15T09:26:31;18.60;29.70
21676;DHT22;10999;51.332;9.458;2022-07-15T09:29:05;18.70;28.20
21676;DHT22;10999;51.332;9.458;2022-07-15T09:31:57;18.90;29.00
21676;DHT22;10999;51.332;9.458;2022-07-15T09:34:59;19.20;27.50
21676;DHT22;10999;51.332;9.458;2022-07-15T09:37:26;19.30;24.00
21676;DHT22;10999;51.332;9.458;2022-07-15T09:39:54;19.30;21.40
21676;DHT22;10999;51.332;9.458;2022-07-15T09:42:22;19.10;20.50
21676;DHT22;10999;51.332;9.458;2022-07-15T09:44:49;18.90;21.00
21676;DHT22;10999;51.332;9.458;2022-07-15T09:47:18;19.00;22.10
21676;DHT22;10999;51.332;9.458;2022-07-15T09:49:45;19.00;20.10
21676;DHT22;10999;51.332;9.458;2022-07-15T09:52:12;19.20;23.60
21676;DHT22;10999;51.332;9.458;2022-07-15T09:54:42;19.30;20.70
21676;DHT22;10999;51.332;9.458;2022-07-15T09:57:09;19.40;19.60
21676;DHT22;10999;51.332;9.458;2022-07-15T09:59:36;19.20;20.50
21676;DHT22;10999;51.332;9.458;2022-07-15T10:02:07;19.30;19.70
21676;DHT22;10999;51.332;9.458;2022-07-15T10:04:34;19.50;20.90
21676;DHT22;10999;51.332;9.458;2022-07-15T10:07:01;19.60;18.60
21676;DHT22;10999;51.332;9.458;2022-07-15T10:09:51;19.80;19.40
21676;DHT22;10999;51.332;9.458;2022-07-15T10:12:19;20.00;19.30
21676;DHT22;10999;51.332;9.458;2022-07-15T10:17:46;19.70;22.40
21676;DHT22;10999;51.332;9.458;2022-07-15T10:22:53;19.30;22.90
21676;DHT22;10999;51.332;9.458;2022-07-15T10:25:39;19.30;24.40
21676;DHT22;10999;51.332;9.458;2022-07-15T10:28:09;19.30;23.60
21676;DHT22;10999;51.332;9.458;2022-07-15T10:30:37;19.30;24.60
21676;DHT22;10999;51.332;9.458;2022-07-15T10:33:06;19.50;24.50
21676;DHT22;10999;51.332;9.458;2022-07-15T10:35:34;19.60;21.50
21676;DHT22;10999;51.332;9.458;2022-07-15T10:40:58;19.70;23.50
21676;DHT22;10999;51.332;9.458;2022-07-15T10:43:44;19.60;22.50
21676;DHT22;10999;51.332;9.458;2022-07-15T10:48:42;19.60;22.90
21676;DHT22;10999;51.332;9.458;2022-07-15T10:51:09;19.60;24.00
21676;DHT22;10999;51.332;9.458;2022-07-15T10:53:46;19.60;23.10
21676;DHT22;10999;51.332;9.458;2022-07-15T10:56:28;19.50;24.50
21676;DHT22;10999;51.332;9.458;2022-07-15T10:59:15;19.30;22.40
21676;DHT22;10999;51.332;9.458;2022-07-15T11:01:44;19.40;24.50
21676;DHT22;10999;51.332;9.458;2022-07-15T11:04:16;19.60;23.70
21676;DHT22;10999;51.332;9.458;2022-07-15T11:12:15;20.50;21.40
21676;DHT22;10999;51.332;9.458;2022-07-15T11:14:42;20.60;21.60
21676;DHT22;10999;51.332;9.458;2022-07-15T11:17:14;20.50;22.30
21676;DHT22;10999;51.332;9.458;2022-07-15T11:19:50;20.40;22.10
21676;DHT22;10999;51.332;9.458;2022-07-15T11:22:17;20.30;21.40
21676;DHT22;10999;51.332;9.458;2022-07-15T11:24:44;19.90;21.50
21676;DHT22;10999;51.332;9.458;2022-07-15T11:27:11;19.70;21.90
21676;DHT22;10999;51.332;9.458;2022-07-15T11:32:17;19.50;23.90
21676;DHT22;10999;51.332;9.458;2022-07-15T11:34:49;19.70;22.00
21676;DHT22;10999;51.332;9.458;2022-07-15T11:37:16;20.00;21.70
21676;DHT22;10999;51.332;9.458;2022-07-15T11:39:46;20.60;21.30
21676;DHT22;10999;51.332;9.458;2022-07-15T11:42:18;20.70;19.70
21676;DHT22;10999;51.332;9.458;2022-07-15T11:45:04;20.80;19.10
21676;DHT22;10999;51.332;9.458;2022-07-15T11:47:31;20.90;19.50
21676;DHT22;10999;51.332;9.458;2022-07-15T11:49:58;20.90;20.30
21676;DHT22;10999;51.332;9.458;2022-07-15T11:52:25;20.70;19.00
21676;DHT22;10999;51.332;9.458;2022-07-15T11:54:52;20.60;19.80
21676;DHT22;10999;51.332;9.458;2022-07-15T11:57:19;20.50;19.00
21676;DHT22;10999;51.332;9.458;2022-07-15T11:59:55;20.50;19.50
21676;DHT22;10999;51.332;9.458;2022-07-15T12:02:23;20.80;20.00
21676;DHT22;10999;51.332;9.458;2022-07-15T12:04:50;21.30;19.10
21676;DHT22;10999;51.332;9.458;2022-07-15T12:07:17;21.30;17.90
21676;DHT22;10999;51.332;9.458;2022-07-15T12:09:48;21.20;17.10
21676;DHT22;10999;51.332;9.458;2022-07-15T12:12:15;21.00;17.10
21676;DHT22;10999;51.332;9.458;2022-07-15T12:14:45;20.70;17.10
21676;DHT22;10999;51.332;9.458;2022-07-15T12:17:15;20.50;18.10
21676;DHT22;10999;51.332;9.458;2022-07-15T12:19:46;20.20;18.00
21676;DHT22;10999;51.332;9.458;2022-07-15T12:22:13;20.00;20.30
21676;DHT22;10999;51.332;9.458;2022-07-15T12:24:41;19.80;22.40
21676;DHT22;10999;51.332;9.458;2022-07-15T12:27:10;19.90;23.10
21676;DHT22;10999;51.332;9.458;2022-07-15T12:29:37;19.80;22.50
21676;DHT22;10999;51.332;9.458;2022-07-15T12:32:25;19.80;25.00
21676;DHT22;10999;51.332;9.458;2022-07-15T12:35:01;19.90;23.60
21676;DHT22;10999;51.332;9.458;2022-07-15T12:40:08;20.20;22.70
21676;DHT22;10999;51.332;9.458;2022-07-15T12:42:43;20.30;24.60
21676;DHT22;10999;51.332;9.458;2022-07-15T12:45:24;20.70;24.20
21676;DHT22;10999;51.332;9.458;2022-07-15T12:50:24;20.80;21.30
21676;DHT22;10999;51.332;9.458;2022-07-15T12:52:52;20.60;19.90
21676;DHT22;10999;51.332;9.458;2022-07-15T12:55:20;20.30;21.20
21676;DHT22;10999;51.332;9.458;2022-07-15T12:57:47;20.30;22.20
21676;DHT22;10999;51.332;9.458;2022-07-15T13:00:15;20.20;23.70
21676;DHT22;10999;51.332;9.458;2022-07-15T13:05:21;20.10;21.80
21676;DHT22;10999;51.332;9.458;2022-07-15T13:07:47;20.10;22.00
21676;DHT22;10999;51.332;9.458;2022-07-15T13:10:14;20.20;24.00
21676;DHT22;10999;51.332;9.458;2022-07-15T13:12:41;20.30;22.70
21676;DHT22;10999;51.332;9.458;2022-07-15T13:15:07;20.40;22.30
21676;DHT22;10999;51.332;9.458;2022-07-15T13:17:34;20.50;23.00
21676;DHT22;10999;51.332;9.458;2022-07-15T13:20:04;20.60;22.50
21676;DHT22;10999;51.332;9.458;2022-07-15T13:22:34;20.60;20.70
21676;DHT22;10999;51.332;9.458;2022-07-15T13:25:00;20.60;21.80
21676;DHT22;10999;51.332;9.458;2022-07-15T13:27:27;20.60;22.40
21676;DHT22;10999;51.332;9.458;2022-07-15T13:29:54;20.50;21.80
21676;DHT22;10999;51.332;9.458;2022-07-15T13:32:24;20.50;23.00
21676;DHT22;10999;51.332;9.458;2022-07-15T13:34:57;20.50;22.40
21676;DHT22;10999;51.332;9.458;2022-07-15T13:37:24;20.60;22.70
21676;DHT22;10999;51.332;9.458;2022-07-15T13:39:51;21.00;22.10
21676;DHT22;10999;51.332;9.458;2022-07-15T13:42:18;21.40;19.20
21676;DHT22;10999;51.332;9.458;2022-07-15T13:44:46;21.70;18.90
21676;DHT22;10999;51.332;9.458;2022-07-15T13:47:12;21.70;18.50
21676;DHT22;10999;51.332;9.458;2022-07-15T13:49:41;22.00;18.60
21676;DHT22;10999;51.332;9.458;2022-07-15T13:52:27;22.10;16.90
21676;DHT22;10999;51.332;9.458;2022-07-15T13:54:53;22.00;17.80
21676;DHT22;10999;51.332;9.458;2022-07-15T13:57:21;21.90;19.30
21676;DHT22;10999;51.332;9.458;2022-07-15T13:59:48;21.60;18.20
21676;DHT22;10999;51.332;9.458;2022-07-15T14:02:15;21.30;17.80
21676;DHT22;10999;51.332;9.458;2022-07-15T14:04:42;21.00;18.80
21676;DHT22;10999;51.332;9.458;2022-07-15T14:07:09;20.90;19.30
21676;DHT22;10999;51.332;9.458;2022-07-15T14:09:37;20.80;18.60
21676;DHT22;10999;51.332;9.458;2022-07-15T14:12:11;20.70;20.00
21676;DHT22;10999;51.332;9.458;2022-07-15T14:14:37;20.60;20.10
21676;DHT22;10999;51.332;9.458;2022-07-15T14:17:05;20.70;21.10
21676;DHT22;10999;51.332;9.458;2022-07-15T14:19:31;20.70;20.60
21676;DHT22;10999;51.332;9.458;2022-07-15T14:21:59;20.60;19.60
21676;DHT22;10999;51.332;9.458;2022-07-15T14:24:25;20.60;20.40
21676;DHT22;10999;51.332;9.458;2022-07-15T14:26:52;20.60;20.10
21676;DHT22;10999;51.332;9.458;2022-07-15T14:29:19;20.60;20.90
21676;DHT22;10999;51.332;9.458;2022-07-15T14:31:46;20.70;19.80
21676;DHT22;10999;51.332;9.458;2022-07-15T14:34:17;20.60;19.70
21676;DHT22;10999;51.332;9.458;2022-07-15T14:36:43;20.60;19.80
21676;DHT22;10999;51.332;9.458;2022-07-15T14:39:30;20.60;20.10
21676;DHT22;10999;51.332;9.458;2022-07-15T14:41:57;20.70;19.70
21676;DHT22;10999;51.332;9.458;2022-07-15T14:44:24;20.60;18.60
21676;DHT22;10999;51.332;9.458;2022-07-15T14:46:50;20.70;18.40
21676;DHT22;10999;51.332;9.458;2022-07-15T14:49:17;20.80;19.20
21676;DHT22;10999;51.332;9.458;2022-07-15T14:51:44;21.00;19.10
21676;DHT22;10999;51.332;9.458;2022-07-15T14:54:10;21.10;18.60
21676;DHT22;10999;51.332;9.458;2022-07-15T14:56:37;21.00;19.70
21676;DHT22;10999;51.332;9.458;2022-07-15T14:59:04;21.00;18.60
21676;DHT22;10999;51.332;9.458;2022-07-15T15:01:30;21.00;18.90
21676;DHT22;10999;51.332;9.458;2022-07-15T15:03:57;21.00;20.30
21676;DHT22;10999;51.332;9.458;2022-07-15T15:06:24;21.00;19.30
21676;DHT22;10999;51.332;9.458;2022-07-15T15:08:50;21.20;19.00
21676;DHT22;10999;51.332;9.458;2022-07-15T15:11:17;21.20;18.40
21676;DHT22;10999;51.332;9.458;2022-07-15T15:13:44;21.10;18.00
21676;DHT22;10999;51.332;9.458;2022-07-15T15:16:10;21.00;17.80
21676;DHT22;10999;51.332;9.458;2022-07-15T15:18:37;20.80;18.00
21676;DHT22;10999;51.332;9.458;2022-07-15T15:21:04;20.70;18.20
21676;DHT22;10999;51.332;9.458;2022-07-15T15:23:33;20.60;18.20
21676;DHT22;10999;51.332;9.458;2022-07-15T15:25:59;20.60;20.10
21676;DHT22;10999;51.332;9.458;2022-07-15T15:28:45;20.70;20.30
21676;DHT22;10999;51.332;9.458;2022-07-15T15:31:12;21.00;18.70
21676;DHT22;10999;51.332;9.458;2022-07-15T15:33:38;21.20;19.10
21676;DHT22;10999;51.332;9.458;2022-07-15T15:36:05;21.40;19.30
21676;DHT22;10999;51.332;9.458;2022-07-15T15:38:32;21.50;17.70
21676;DHT22;10999;51.332;9.458;2022-07-15T15:40:58;21.50;18.90
21676;DHT22;10999;51.332;9.458;2022-07-15T15:43:25;21.40;17.80
21676;DHT22;10999;51.332;9.458;2022-07-15T15:45:52;21.60;19.10
21676;DHT22;10999;51.332;9.458;2022-07-15T15:48:19;21.60;17.00
21676;DHT22;10999;51.332;9.458;2022-07-15T15:50:47;21.60;17.60
21676;DHT22;10999;51.332;9.458;2022-07-15T15:53:13;21.70;18.70
21676;DHT22;10999;51.332;9.458;2022-07-15T15:55:40;21.60;18.80
21676;DHT22;10999;51.332;9.458;2022-07-15T15:58:07;21.40;18.60
21676;DHT22;10999;51.332;9.458;2022-07-15T16:00:49;21.30;19.30
21676;DHT22;10999;51.332;9.458;2022-07-15T16:03:16;21.20;19.40